Time;durP1;ratioP1;P1;durP2;ratioP2;P2;SDS_P1;SDS_P2;PMS_P1;PMS_P2;Temp;Humidity;BMP_temperature;BMP_pressure;BME280_temperature;BME280_humidity;BME280_pressure;Samples;Min_cycle;Max_cycle;Signal;HPM_P1;HPM_P2
2023/07/20 00:01:52;;;;;;;;;9.00;8.00;30.50;50.40;;;;;;111148;1243;44483;-63
2023/07/20 00:04:19;;;;;;;;;9.75;9.00;30.50;50.40;;;;;;111301;1243;48595;-62
2023/07/20 00:06:46;;;;;;;;;10.00;9.67;30.40;50.30;;;;;;111213;1244;49382;-63
2023/07/20 00:09:13;;;;;;;;;9.50;9.25;30.40;50.40;;;;;;111251;1240;53807;-62
2023/07/20 00:11:40;;;;;;;;;9.67;9.00;30.50;50.50;;;;;;111225;1243;44718;-62
2023/07/20 00:14:07;;;;;;;;;11.00;9.67;30.40;50.60;;;;;;111267;1244;49286;-63
2023/07/20 00:16:34;;;;;;;;;11.50;10.25;30.40;50.40;;;;;;111255;1243;50063;-61
2023/07/20 00:19:01;;;;;;;;;10.00;9.25;30.40;50.40;;;;;;111216;1243;53475;-63
2023/07/20 00:21:28;;;;;;;;;9.25;8.25;30.40;50.60;;;;;;111319;1240;44951;-63
2023/07/20 00:23:55;;;;;;;;;10.00;9.00;30.40;50.40;;;;;;111227;1238;49516;-61
2023/07/20 00:26:22;;;;;;;;;10.33;8.33;30.40;50.40;;;;;;111574;1238;49309;-63
2023/07/20 00:28:51;;;;;;;;;11.00;9.00;30.40;50.50;;;;;;111286;1243;53705;-64
2023/07/20 00:31:18;;;;;;;;;8.00;8.00;30.40;51.00;;;;;;111367;1243;44775;-64
2023/07/20 00:33:45;;;;;;;;;9.00;8.00;30.40;50.50;;;;;;111234;1239;49253;-63
2023/07/20 00:36:12;;;;;;;;;9.00;8.50;30.40;50.40;;;;;;111274;1239;49004;-65
2023/07/20 00:38:39;;;;;;;;;9.75;9.00;30.40;50.60;;;;;;111235;1243;53486;-64
2023/07/20 00:41:06;;;;;;;;;9.75;8.75;30.40;50.40;;;;;;111130;1241;45047;-66
2023/07/20 00:43:33;;;;;;;;;9.25;7.25;30.40;50.50;;;;;;111194;1243;48645;-64
2023/07/20 00:46:00;;;;;;;;;8.75;8.25;30.30;50.60;;;;;;111303;1243;49114;-64
2023/07/20 00:48:27;;;;;;;;;9.75;9.00;30.30;50.40;;;;;;111309;1240;55478;-64
2023/07/20 00:50:54;;;;;;;;;8.25;7.25;30.30;50.40;;;;;;111420;1240;45713;-64
2023/07/20 00:53:21;;;;;;;;;10.00;9.00;30.30;50.40;;;;;;111249;1243;49535;-64
2023/07/20 00:55:48;;;;;;;;;9.00;8.25;30.30;50.50;;;;;;111209;1243;48871;-64
2023/07/20 00:58:15;;;;;;;;;10.00;9.00;30.30;50.70;;;;;;111213;1240;53894;-63
2023/07/20 01:00:42;;;;;;;;;8.67;7.00;30.30;50.70;;;;;;111302;1238;44545;-63
2023/07/20 01:03:09;;;;;;;;;8.75;8.25;30.30;50.50;;;;;;111285;1243;49039;-64
2023/07/20 01:05:42;;;;;;;;;7.00;7.00;30.30;50.50;;;;;;111411;1243;49589;-63
2023/07/20 01:08:18;;;;;;;;;9.33;8.33;30.30;50.60;;;;;;111210;1244;54000;-63
2023/07/20 01:10:53;;;;;;;;;8.00;7.25;30.30;50.70;;;;;;111218;1240;44908;-64
2023/07/20 01:13:22;;;;;;;;;9.00;8.00;30.30;50.70;;;;;;111226;1239;49832;-62
2023/07/20 01:16:07;;;;;;;;;10.00;8.33;30.30;50.50;;;;;;111278;1240;48974;-65
2023/07/20 01:18:34;;;;;;;;;9.50;8.75;30.30;50.50;;;;;;111215;1243;54038;-63
2023/07/20 01:21:10;;;;;;;;;9.00;8.25;30.30;50.50;;;;;;111412;1242;44676;-66
2023/07/20 01:24:13;;;;;;;;;10.00;8.00;30.30;50.60;;;;;;111364;1240;49939;-63
2023/07/20 01:26:55;;;;;;;;;11.00;9.75;30.30;50.50;;;;;;111181;1240;49919;-65
2023/07/20 01:29:42;;;;;;;;;10.00;8.50;30.30;51.10;;;;;;111198;1240;53826;-62
2023/07/20 01:32:09;;;;;;;;;9.00;8.25;30.20;50.50;;;;;;111222;1243;45053;-61
2023/07/20 01:34:38;;;;;;;;;10.00;9.00;30.20;50.50;;;;;;111225;1243;48839;-62
2023/07/20 01:37:06;;;;;;;;;8.00;7.25;30.20;50.70;;;;;;111172;1240;48774;-63
2023/07/20 01:39:33;;;;;;;;;8.75;8.25;30.20;50.50;;;;;;111227;1241;54755;-62
2023/07/20 01:42:01;;;;;;;;;8.50;8.00;30.20;50.50;;;;;;111164;1244;44422;-64
2023/07/20 01:44:27;;;;;;;;;7.00;7.00;30.20;50.70;;;;;;111157;1240;49057;-60
2023/07/20 01:46:54;;;;;;;;;9.75;9.00;30.20;50.60;;;;;;111309;1239;49612;-61
2023/07/20 01:49:21;;;;;;;;;10.00;9.00;30.20;50.60;;;;;;111271;1239;54253;-62
2023/07/20 01:51:48;;;;;;;;;10.00;10.00;30.20;50.60;;;;;;111210;1238;44665;-61
2023/07/20 01:54:15;;;;;;;;;9.50;9.00;30.20;50.80;;;;;;111240;1243;49339;-61
2023/07/20 01:56:42;;;;;;;;;7.00;6.00;30.20;50.60;;;;;;111279;1240;49937;-62
2023/07/20 01:59:09;;;;;;;;;9.00;8.00;30.20;50.60;;;;;;111196;1241;53887;-65
2023/07/20 02:01:35;;;;;;;;;12.50;10.00;30.10;50.10;;;;;;111288;1243;44723;-62
2023/07/20 02:04:02;;;;;;;;;9.00;8.33;30.10;50.60;;;;;;111231;1243;49967;-61
2023/07/20 02:06:30;;;;;;;;;9.00;8.00;30.10;50.60;;;;;;111223;1243;49631;-63
2023/07/20 02:08:56;;;;;;;;;9.00;8.00;30.10;50.20;;;;;;111191;1241;53843;-62
2023/07/20 02:11:23;;;;;;;;;10.00;8.00;30.10;50.60;;;;;;111209;1238;45368;-63
2023/07/20 02:13:50;;;;;;;;;8.00;7.00;30.10;50.60;;;;;;111198;1241;49989;-62
2023/07/20 02:16:17;;;;;;;;;8.67;8.33;30.10;50.60;;;;;;111215;1240;49930;-63
2023/07/20 02:18:44;;;;;;;;;9.75;9.00;30.10;50.70;;;;;;111198;1240;54188;-62
2023/07/20 02:21:11;;;;;;;;;7.25;7.25;30.10;50.70;;;;;;111254;1243;44708;-63
2023/07/20 02:23:38;;;;;;;;;7.75;7.00;30.00;50.60;;;;;;111220;1243;48909;-62
2023/07/20 02:26:04;;;;;;;;;8.67;7.33;30.00;50.60;;;;;;111309;1238;49516;-61
2023/07/20 02:28:31;;;;;;;;;8.00;8.00;30.00;50.60;;;;;;111205;1238;54132;-62
2023/07/20 02:31:00;;;;;;;;;8.25;8.00;30.00;50.60;;;;;;111204;1240;45901;-62
2023/07/20 02:33:27;;;;;;;;;9.00;8.00;30.00;50.60;;;;;;111324;1243;49586;-61
2023/07/20 02:35:55;;;;;;;;;9.00;7.00;30.00;50.70;;;;;;111227;1240;49678;-62
2023/07/20 02:38:22;;;;;;;;;7.33;6.67;30.00;50.70;;;;;;111282;1240;54049;-62
2023/07/20 02:40:49;;;;;;;;;9.25;9.00;30.00;50.70;;;;;;111235;1244;45084;-62
2023/07/20 02:43:16;;;;;;;;;8.33;8.00;30.00;50.70;;;;;;111222;1238;48785;-62
2023/07/20 02:45:43;;;;;;;;;9.00;8.00;30.00;50.70;;;;;;111256;1238;49169;-62
2023/07/20 02:48:10;;;;;;;;;9.25;9.00;30.00;50.70;;;;;;111211;1244;54574;-62
2023/07/20 02:50:37;;;;;;;;;8.00;7.75;30.00;50.70;;;;;;111241;1239;44387;-60
2023/07/20 02:53:04;;;;;;;;;9.50;9.00;30.00;50.70;;;;;;111186;1240;49348;-61
2023/07/20 02:55:31;;;;;;;;;11.00;9.00;30.00;50.70;;;;;;111373;1238;50473;-62
2023/07/20 02:57:57;;;;;;;;;10.00;8.75;30.00;50.70;;;;;;111245;1243;53310;-61
2023/07/20 03:00:24;;;;;;;;;8.25;7.75;30.00;50.70;;;;;;111223;1243;44466;-63
2023/07/20 03:02:55;;;;;;;;;8.00;7.33;30.00;51.00;;;;;;111260;1243;49589;-61
2023/07/20 03:05:25;;;;;;;;;8.50;8.00;30.00;51.00;;;;;;111377;1238;49011;-62
2023/07/20 03:07:52;;;;;;;;;11.00;8.25;30.00;51.00;;;;;;111311;1238;53631;-62
2023/07/20 03:10:19;;;;;;;;;8.75;7.25;30.00;50.70;;;;;;111209;1245;44195;-61
2023/07/20 03:12:45;;;;;;;;;9.00;8.00;30.00;51.00;;;;;;111233;1238;49077;-62
2023/07/20 03:15:12;;;;;;;;;8.00;7.00;30.00;51.00;;;;;;111369;1240;49429;-63
2023/07/20 03:17:39;;;;;;;;;9.00;7.00;30.00;51.00;;;;;;111278;1243;54955;-61
2023/07/20 03:20:09;;;;;;;;;8.00;7.00;29.90;50.70;;;;;;111269;1241;45168;-62
2023/07/20 03:22:36;;;;;;;;;9.00;8.00;29.90;50.70;;;;;;111300;1239;48973;-62
2023/07/20 03:25:04;;;;;;;;;10.25;9.00;29.90;50.70;;;;;;111264;1243;49367;-62
2023/07/20 03:27:31;;;;;;;;;11.00;9.25;29.90;50.70;;;;;;111276;1240;53743;-62
2023/07/20 03:29:58;;;;;;;;;9.00;8.25;29.90;50.70;;;;;;111261;1238;44799;-62
2023/07/20 03:32:25;;;;;;;;;9.50;8.00;29.90;50.90;;;;;;111220;1238;49165;-62
2023/07/20 03:34:52;;;;;;;;;10.00;9.00;29.90;51.00;;;;;;111267;1243;48638;-62
2023/07/20 03:37:19;;;;;;;;;9.00;8.00;29.90;50.80;;;;;;111197;1243;53668;-63
2023/07/20 03:39:46;;;;;;;;;8.33;7.33;29.90;50.70;;;;;;111239;1243;44429;-62
2023/07/20 03:42:13;;;;;;;;;11.50;9.25;29.90;50.70;;;;;;111239;1243;48705;-63
2023/07/20 03:44:40;;;;;;;;;10.75;9.00;29.90;50.70;;;;;;111297;1242;48529;-61
2023/07/20 03:47:07;;;;;;;;;8.00;7.75;29.90;50.80;;;;;;111236;1243;54360;-61
2023/07/20 03:49:34;;;;;;;;;9.00;8.33;29.90;50.80;;;;;;111223;1239;45788;-62
2023/07/20 03:52:04;;;;;;;;;9.00;8.00;29.90;50.80;;;;;;111235;1241;48953;-61
2023/07/20 03:54:31;;;;;;;;;10.00;9.00;29.90;51.40;;;;;;111278;1243;49745;-62
2023/07/20 03:56:59;;;;;;;;;9.00;8.50;29.90;50.90;;;;;;111262;1238;54316;-61
2023/07/20 03:59:26;;;;;;;;;7.00;6.00;29.90;50.90;;;;;;111312;1239;44738;-62
2023/07/20 04:01:53;;;;;;;;;8.00;7.75;29.90;50.90;;;;;;111245;1238;49943;-62
2023/07/20 04:04:20;;;;;;;;;9.00;8.25;29.90;51.00;;;;;;111189;1243;49012;-62
2023/07/20 04:06:47;;;;;;;;;8.33;7.33;29.90;51.00;;;;;;111242;1238;54527;-62
2023/07/20 04:09:14;;;;;;;;;9.00;8.25;29.80;51.10;;;;;;111232;1243;45195;-62
2023/07/20 04:11:40;;;;;;;;;9.00;8.00;29.90;51.00;;;;;;111292;1237;48894;-62
2023/07/20 04:14:07;;;;;;;;;9.67;8.67;29.80;50.50;;;;;;111226;1243;49506;-61
2023/07/20 04:16:34;;;;;;;;;7.25;6.25;29.80;51.40;;;;;;111198;1240;54924;-63
2023/07/20 04:19:01;;;;;;;;;8.00;7.33;29.80;50.90;;;;;;111183;1243;44918;-63
2023/07/20 04:21:28;;;;;;;;;8.00;7.00;29.90;51.00;;;;;;111159;1238;49663;-61
2023/07/20 04:23:55;;;;;;;;;9.75;8.00;29.90;51.30;;;;;;111209;1240;49383;-63
2023/07/20 04:26:22;;;;;;;;;8.00;7.00;29.90;50.90;;;;;;111234;1243;54079;-62
2023/07/20 04:28:50;;;;;;;;;8.00;7.25;29.80;50.90;;;;;;111310;1238;44977;-62
2023/07/20 04:31:17;;;;;;;;;8.25;7.50;29.90;51.00;;;;;;111270;1240;48958;-63
2023/07/20 04:33:44;;;;;;;;;11.75;11.00;29.90;51.10;;;;;;111285;1239;49255;-62
2023/07/20 04:36:12;;;;;;;;;13.00;11.33;29.90;51.50;;;;;;111234;1244;53488;-66
2023/07/20 04:38:40;;;;;;;;;16.33;14.00;29.90;51.70;;;;;;111583;1240;44625;-65
2023/07/20 04:41:07;;;;;;;;;24.00;21.25;29.90;51.10;;;;;;111552;1239;49877;-64
2023/07/20 04:43:34;;;;;;;;;27.33;24.67;29.90;50.60;;;;;;111503;1240;49784;-65
2023/07/20 04:46:00;;;;;;;;;36.67;30.33;29.90;50.50;;;;;;111748;1238;53928;-68
2023/07/20 04:48:28;;;;;;;;;36.75;28.50;29.90;49.80;;;;;;111438;1243;44763;-67
2023/07/20 04:50:55;;;;;;;;;41.00;30.67;29.90;49.40;;;;;;111433;1244;49725;-69
2023/07/20 04:53:22;;;;;;;;;35.25;28.50;29.90;47.70;;;;;;111354;1245;49763;-68
2023/07/20 04:55:51;;;;;;;;;37.33;29.00;29.90;46.80;;;;;;111695;1243;54092;-62
2023/07/20 04:58:19;;;;;;;;;33.25;25.75;29.80;45.90;;;;;;110608;1243;1112123;-67
2023/07/20 05:00:46;;;;;;;;;36.25;29.25;29.80;44.80;;;;;;111419;1243;49245;-66
2023/07/20 05:03:13;;;;;;;;;50.00;37.00;29.80;45.40;;;;;;111489;1240;49882;-62
2023/07/20 05:05:40;;;;;;;;;45.00;36.50;29.80;45.50;;;;;;111497;1240;53722;-66
2023/07/20 05:08:06;;;;;;;;;42.50;34.75;29.70;45.40;;;;;;111442;1240;45358;-68
2023/07/20 05:10:33;;;;;;;;;42.00;32.00;29.70;45.10;;;;;;111375;1243;48833;-68
2023/07/20 05:13:00;;;;;;;;;41.25;31.00;29.70;44.00;;;;;;111420;1243;49140;-64
2023/07/20 05:15:27;;;;;;;;;39.50;30.75;29.70;43.40;;;;;;111653;1243;53754;-66
2023/07/20 05:17:54;;;;;;;;;39.00;31.25;29.60;42.90;;;;;;111407;1240;44613;-66
2023/07/20 05:20:21;;;;;;;;;44.50;32.25;29.60;42.70;;;;;;111410;1238;49623;-65
2023/07/20 05:22:48;;;;;;;;;39.50;32.25;29.60;42.40;;;;;;111463;1241;49774;-64
2023/07/20 05:25:18;;;;;;;;;35.00;30.00;29.60;41.80;;;;;;111747;1243;54318;-65
2023/07/20 05:27:45;;;;;;;;;38.50;29.50;29.50;42.00;;;;;;111473;1243;44732;-67
2023/07/20 05:30:12;;;;;;;;;39.00;31.33;29.50;42.30;;;;;;111470;1239;48995;-64
2023/07/20 05:32:39;;;;;;;;;35.50;31.00;29.50;42.50;;;;;;111175;1238;50185;-65
2023/07/20 05:35:08;;;;;;;;;40.00;29.25;29.50;43.70;;;;;;111074;1243;54036;-66
2023/07/20 05:37:35;;;;;;;;;37.33;31.00;29.50;44.30;;;;;;111262;1243;45206;-65
2023/07/20 05:40:02;;;;;;;;;41.33;32.00;29.50;44.80;;;;;;111352;1238;48902;-64
2023/07/20 05:42:29;;;;;;;;;36.25;29.50;29.50;45.10;;;;;;111383;1239;50499;-65
2023/07/20 05:44:56;;;;;;;;;36.67;30.67;29.50;45.50;;;;;;111203;1243;53647;-64
2023/07/20 05:47:23;;;;;;;;;37.25;29.00;29.40;45.70;;;;;;111304;1240;45061;-65
2023/07/20 05:49:50;;;;;;;;;38.00;29.00;29.50;46.10;;;;;;111250;1243;50122;-64
2023/07/20 05:52:17;;;;;;;;;33.25;27.75;29.40;46.30;;;;;;111146;1243;49732;-65
2023/07/20 05:54:44;;;;;;;;;35.00;31.00;29.40;46.60;;;;;;111145;1240;54748;-65
2023/07/20 05:57:11;;;;;;;;;33.75;27.75;29.40;46.80;;;;;;111147;1240;44968;-64
2023/07/20 05:59:40;;;;;;;;;37.00;30.00;29.40;47.00;;;;;;111177;1243;48962;-65
2023/07/20 06:02:08;;;;;;;;;32.67;28.00;29.40;47.30;;;;;;111293;1243;48970;-64
2023/07/20 06:04:35;;;;;;;;;30.75;24.50;29.40;47.40;;;;;;111410;1239;54684;-63
2023/07/20 06:07:02;;;;;;;;;37.00;30.75;29.40;47.70;;;;;;111194;1244;45551;-67
2023/07/20 06:09:30;;;;;;;;;29.75;27.25;29.40;48.00;;;;;;111272;1244;49349;-63
2023/07/20 06:11:57;;;;;;;;;36.33;28.67;29.40;48.20;;;;;;111296;1238;51209;-64
2023/07/20 06:14:24;;;;;;;;;33.00;28.33;29.40;48.40;;;;;;111509;1244;53300;-62
2023/07/20 06:16:51;;;;;;;;;33.67;27.00;29.40;48.70;;;;;;111291;1243;44876;-63
2023/07/20 06:19:18;;;;;;;;;30.75;24.25;29.50;48.40;;;;;;111230;1239;50014;-63
2023/07/20 06:21:45;;;;;;;;;34.75;29.75;29.50;49.20;;;;;;111223;1240;49731;-63
2023/07/20 06:24:12;;;;;;;;;29.00;25.25;29.50;49.20;;;;;;111258;1244;54041;-62
2023/07/20 06:26:39;;;;;;;;;27.50;26.00;29.50;49.20;;;;;;111270;1239;45074;-62
2023/07/20 06:29:07;;;;;;;;;28.25;26.00;29.50;49.40;;;;;;111309;1240;49554;-63
2023/07/20 06:31:34;;;;;;;;;32.75;26.25;29.50;49.60;;;;;;111306;1243;49811;-65
2023/07/20 06:34:02;;;;;;;;;27.75;23.50;29.50;49.80;;;;;;111383;1243;53513;-66
2023/07/20 06:36:29;;;;;;;;;31.00;27.25;29.50;50.00;;;;;;111502;1241;44224;-66
2023/07/20 06:38:56;;;;;;;;;33.50;29.00;29.50;49.70;;;;;;111322;1243;48880;-65
2023/07/20 06:41:23;;;;;;;;;29.75;25.75;29.60;49.90;;;;;;111358;1243;50300;-64
2023/07/20 06:43:50;;;;;;;;;26.00;22.75;29.60;50.10;;;;;;111319;1240;53646;-65
2023/07/20 06:46:17;;;;;;;;;28.50;24.75;29.60;50.30;;;;;;111626;1239;44962;-63
2023/07/20 06:48:44;;;;;;;;;25.00;21.67;29.70;50.20;;;;;;111338;1243;49983;-65
2023/07/20 06:51:11;;;;;;;;;25.00;23.67;29.80;50.10;;;;;;111355;1239;49437;-64
2023/07/20 06:53:38;;;;;;;;;28.00;23.50;29.80;50.10;;;;;;111307;1238;54451;-66
2023/07/20 06:56:05;;;;;;;;;24.50;22.50;29.90;50.70;;;;;;111578;1243;45114;-67
2023/07/20 06:58:33;;;;;;;;;27.67;25.67;29.90;50.30;;;;;;111365;1238;49078;-66
2023/07/20 07:01:05;;;;;;;;;28.25;23.75;;;;;;;;111194;1244;48925;-72
2023/07/20 07:03:33;;;;;;;;;30.67;25.00;30.00;49.90;;;;;;111375;1243;54349;-64
2023/07/20 07:06:00;;;;;;;;;30.67;26.00;30.00;50.50;;;;;;111595;1243;45391;-64
2023/07/20 07:08:27;;;;;;;;;28.25;23.00;30.10;50.10;;;;;;111344;1244;49501;-64
2023/07/20 07:10:54;;;;;;;;;24.75;20.75;30.20;50.30;;;;;;111340;1239;50506;-65
2023/07/20 07:13:21;;;;;;;;;31.50;25.25;30.20;50.20;;;;;;111466;1243;53789;-65
2023/07/20 07:15:48;;;;;;;;;30.50;24.00;30.30;50.20;;;;;;111737;1243;45067;-64
2023/07/20 07:18:15;;;;;;;;;28.00;23.00;30.30;50.30;;;;;;111442;1243;49756;-65
2023/07/20 07:20:50;;;;;;;;;24.00;20.75;30.40;50.60;;;;;;111334;1241;50386;-65
2023/07/20 07:23:17;;;;;;;;;24.00;21.00;30.40;50.50;;;;;;111292;1240;53454;-63
2023/07/20 07:25:44;;;;;;;;;25.00;22.67;30.40;50.50;;;;;;111273;1239;45503;-63
2023/07/20 07:28:11;;;;;;;;;23.00;18.50;30.40;50.10;;;;;;111222;1238;49501;-68
2023/07/20 07:30:38;;;;;;;;;25.25;20.25;30.50;50.50;;;;;;111358;1238;49703;-69
2023/07/20 07:33:05;;;;;;;;;25.67;21.33;30.50;50.50;;;;;;111372;1241;53640;-69
2023/07/20 07:35:32;;;;;;;;;72.25;55.00;30.50;50.90;;;;;;111575;1244;44627;-70
2023/07/20 07:37:59;;;;;;;;;25.00;24.00;30.60;50.50;;;;;;111405;1242;49228;-72
2023/07/20 07:40:26;;;;;;;;;26.67;22.33;30.60;50.60;;;;;;111448;1238;49433;-63
2023/07/20 07:42:53;;;;;;;;;27.67;24.00;30.60;50.60;;;;;;111629;1240;53488;-63
2023/07/20 07:45:20;;;;;;;;;64.25;46.50;30.70;50.40;;;;;;111604;1239;44312;-64
2023/07/20 07:47:46;;;;;;;;;32.67;29.00;30.70;50.40;;;;;;111559;1243;49683;-65
2023/07/20 07:50:13;;;;;;;;;56.67;43.00;30.70;50.30;;;;;;111518;1238;49778;-64
2023/07/20 07:52:40;;;;;;;;;40.25;31.50;30.80;50.50;;;;;;111603;1239;54593;-63
2023/07/20 07:55:07;;;;;;;;;44.75;34.25;30.80;50.80;;;;;;111578;1241;45625;-64
2023/07/20 07:57:34;;;;;;;;;42.25;32.25;30.80;50.90;;;;;;111645;1243;49191;-64
2023/07/20 08:00:01;;;;;;;;;37.00;30.00;30.80;50.60;;;;;;111657;1238;49655;-65
2023/07/20 08:02:28;;;;;;;;;45.00;35.00;30.90;51.30;;;;;;111433;1244;53795;-65
2023/07/20 08:04:55;;;;;;;;;43.75;33.75;31.00;51.90;;;;;;111865;1240;44662;-63
2023/07/20 08:07:22;;;;;;;;;42.50;32.50;31.00;50.70;;;;;;111585;1240;49544;-64
2023/07/20 08:09:49;;;;;;;;;38.75;31.75;31.00;51.20;;;;;;111422;1243;48965;-62
2023/07/20 08:12:18;;;;;;;;;44.00;32.50;31.10;50.80;;;;;;111283;1243;54355;-67
2023/07/20 08:14:45;;;;;;;;;34.50;30.50;31.10;51.00;;;;;;111615;1239;44396;-66
2023/07/20 08:17:12;;;;;;;;;32.50;28.00;31.10;51.10;;;;;;111420;1244;50170;-65
2023/07/20 08:19:41;;;;;;;;;35.50;28.75;31.10;51.10;;;;;;111299;1238;49717;-66
2023/07/20 08:22:08;;;;;;;;;39.25;29.75;31.10;51.10;;;;;;111405;1240;53476;-63
2023/07/20 08:24:39;;;;;;;;;38.50;31.25;31.10;50.70;;;;;;111287;1243;44299;-65
2023/07/20 08:27:06;;;;;;;;;36.00;29.00;31.20;51.00;;;;;;111407;1241;50716;-66
2023/07/20 08:29:37;;;;;;;;;29.25;26.00;31.20;51.90;;;;;;111212;1239;50097;-62
2023/07/20 08:32:06;;;;;;;;;33.33;28.00;31.20;50.90;;;;;;111414;1243;53825;-64
2023/07/20 08:34:33;;;;;;;;;30.00;27.00;31.20;50.70;;;;;;111292;1243;45491;-65
2023/07/20 08:37:00;;;;;;;;;33.33;28.33;31.20;50.90;;;;;;111212;1244;50459;-63
2023/07/20 08:39:27;;;;;;;;;27.25;24.75;31.20;51.10;;;;;;111328;1243;50237;-63
2023/07/20 08:41:55;;;;;;;;;30.25;25.50;31.30;50.90;;;;;;111239;1238;53783;-64
2023/07/20 08:44:23;;;;;;;;;32.00;25.75;31.30;51.10;;;;;;111336;1239;44299;-63
2023/07/20 08:46:51;;;;;;;;;30.00;23.75;31.30;51.00;;;;;;111246;1238;49497;-64
2023/07/20 08:49:19;;;;;;;;;26.00;22.75;31.30;51.00;;;;;;111167;1244;49155;-61
2023/07/20 08:51:47;;;;;;;;;25.25;22.00;31.30;50.80;;;;;;111205;1242;53699;-64
2023/07/20 08:54:14;;;;;;;;;28.75;24.25;31.30;51.10;;;;;;111440;1245;44675;-65
2023/07/20 08:56:43;;;;;;;;;25.75;22.50;31.30;51.10;;;;;;111373;1240;49208;-65
2023/07/20 08:59:12;;;;;;;;;100.75;87.50;31.40;50.70;;;;;;111230;1244;49796;-64
2023/07/20 09:01:39;;;;;;;;;138.67;111.33;31.50;50.20;;;;;;111326;1238;54550;-66
2023/07/20 09:04:06;;;;;;;;;32.25;30.00;31.60;50.10;;;;;;111251;1240;45138;-64
2023/07/20 09:06:34;;;;;;;;;36.67;29.67;31.60;50.30;;;;;;111536;1243;49410;-63
2023/07/20 09:09:02;;;;;;;;;32.33;28.00;31.60;50.70;;;;;;111358;1244;48949;-64
2023/07/20 09:11:29;;;;;;;;;36.00;31.00;31.70;50.90;;;;;;111352;1240;54175;-63
2023/07/20 09:14:10;;;;;;;;;37.00;31.00;31.70;50.50;;;;;;111361;1239;44758;-64
2023/07/20 09:17:03;;;;;;;;;50.25;40.00;31.70;50.50;;;;;;111499;1243;50098;-63
2023/07/20 09:19:30;;;;;;;;;42.25;35.00;31.70;50.50;;;;;;111325;1240;49789;-62
2023/07/20 09:21:58;;;;;;;;;45.00;34.50;31.70;50.40;;;;;;111405;1243;54020;-64
2023/07/20 09:24:28;;;;;;;;;204.75;175.00;31.70;50.50;;;;;;111541;1239;45630;-62
2023/07/20 09:26:55;;;;;;;;;51.00;40.00;31.70;51.10;;;;;;111229;1238;50262;-65
2023/07/20 09:29:22;;;;;;;;;46.00;37.00;31.70;50.60;;;;;;111251;1240;49237;-65
2023/07/20 09:32:03;;;;;;;;;51.25;38.25;31.70;50.60;;;;;;111313;1243;53929;-63
2023/07/20 09:34:31;;;;;;;;;53.25;41.25;31.70;50.90;;;;;;111278;1238;44455;-65
2023/07/20 09:37:00;;;;;;;;;82.00;66.00;31.60;50.70;;;;;;111287;1238;49765;-64
2023/07/20 09:39:27;;;;;;;;;54.75;42.00;31.60;50.80;;;;;;111462;1240;51108;-64
2023/07/20 09:41:55;;;;;;;;;53.00;40.00;31.60;51.00;;;;;;111249;1240;54278;-65
2023/07/20 09:44:22;;;;;;;;;49.25;38.00;31.60;50.90;;;;;;111386;1240;45044;-64
2023/07/20 09:46:50;;;;;;;;;43.75;34.75;31.60;50.00;;;;;;111330;1239;49423;-64
2023/07/20 09:49:18;;;;;;;;;39.67;31.00;31.50;50.50;;;;;;111422;1238;49197;-65
2023/07/20 09:51:46;;;;;;;;;40.00;33.33;31.50;50.60;;;;;;111558;1243;54210;-66
2023/07/20 09:54:14;;;;;;;;;36.50;32.00;31.50;50.30;;;;;;111511;1238;45219;-66
2023/07/20 09:56:42;;;;;;;;;32.00;29.25;31.40;50.50;;;;;;111507;1241;49595;-66
2023/07/20 09:59:09;;;;;;;;;30.00;25.50;31.40;50.30;;;;;;111404;1244;48910;-65
2023/07/20 10:01:38;;;;;;;;;31.25;28.25;31.40;49.70;;;;;;111376;1243;53699;-66
2023/07/20 10:04:07;;;;;;;;;30.33;26.00;31.40;49.60;;;;;;111541;1240;44298;-66
2023/07/20 10:06:37;;;;;;;;;27.00;24.00;31.40;49.80;;;;;;111666;1243;50206;-66
2023/07/20 10:09:06;;;;;;;;;29.00;26.00;31.40;49.90;;;;;;111319;1244;50232;-65
2023/07/20 10:11:37;;;;;;;;;30.75;25.25;31.40;50.60;;;;;;111434;1243;53633;-65
2023/07/20 10:14:11;;;;;;;;;33.33;30.00;31.40;50.60;;;;;;111490;1243;44578;-65
2023/07/20 10:16:48;;;;;;;;;36.25;29.25;31.50;50.50;;;;;;111472;1238;48836;-67
2023/07/20 10:19:26;;;;;;;;;34.75;30.25;31.50;50.90;;;;;;111462;1238;49450;-65
2023/07/20 10:22:25;;;;;;;;;37.25;31.50;31.60;50.90;;;;;;111381;1238;53394;-70
2023/07/20 10:24:54;;;;;;;;;39.00;32.00;31.70;51.30;;;;;;111628;1243;44851;-68
2023/07/20 10:27:21;;;;;;;;;38.25;32.00;31.80;51.40;;;;;;111422;1243;50416;-64
2023/07/20 10:29:48;;;;;;;;;41.75;32.25;31.90;51.20;;;;;;111463;1241;49175;-66
2023/07/20 10:32:15;;;;;;;;;36.00;31.33;31.90;51.00;;;;;;111583;1240;53386;-66
2023/07/20 10:34:42;;;;;;;;;39.33;31.67;31.90;51.20;;;;;;111417;1244;45213;-67
2023/07/20 10:37:09;;;;;;;;;37.75;31.00;31.90;50.80;;;;;;111407;1243;49438;-69
2023/07/20 10:39:36;;;;;;;;;36.33;31.00;31.90;51.40;;;;;;111623;1239;49839;-65
2023/07/20 10:42:07;;;;;;;;;31.25;29.00;31.90;51.20;;;;;;111464;1238;53482;-65
2023/07/20 10:44:37;;;;;;;;;40.00;31.00;31.90;51.60;;;;;;111437;1238;45063;-66
2023/07/20 10:47:13;;;;;;;;;38.50;32.25;31.90;51.60;;;;;;111855;1243;49316;-67
2023/07/20 10:50:00;;;;;;;;;33.00;30.00;31.90;51.20;;;;;;111431;1238;48864;-65
2023/07/20 10:52:37;;;;;;;;;39.67;29.67;32.00;51.20;;;;;;111451;1243;55299;-66
2023/07/20 10:55:14;;;;;;;;;41.50;33.75;32.00;51.40;;;;;;111658;1240;44777;-65
2023/07/20 10:57:42;;;;;;;;;47.33;38.00;32.00;51.10;;;;;;111530;1240;49767;-66
2023/07/20 11:00:12;;;;;;;;;50.00;39.67;32.10;50.80;;;;;;111601;1238;50095;-64
2023/07/20 11:02:49;;;;;;;;;47.00;38.00;32.10;51.60;;;;;;111329;1244;54282;-64
2023/07/20 11:05:35;;;;;;;;;55.75;43.75;32.00;51.30;;;;;;111483;1238;45300;-65
2023/07/20 11:08:45;;;;;;;;;45.00;35.00;32.00;51.20;;;;;;111702;1244;50116;-65
2023/07/20 11:11:23;;;;;;;;;53.00;40.00;32.00;51.20;;;;;;111565;1238;49219;-65
2023/07/20 11:14:22;;;;;;;;;53.25;38.50;32.10;51.00;;;;;;111591;1240;53663;-62
2023/07/20 11:16:51;;;;;;;;;52.00;41.00;32.20;50.90;;;;;;111434;1240;45200;-65
2023/07/20 11:19:26;;;;;;;;;52.50;42.00;32.20;50.80;;;;;;111604;1240;51001;-66
2023/07/20 11:21:55;;;;;;;;;53.50;41.00;32.20;50.90;;;;;;111585;1243;48966;-65
2023/07/20 11:24:22;;;;;;;;;58.25;43.25;32.20;50.90;;;;;;111826;1238;54619;-65
2023/07/20 11:26:51;;;;;;;;;59.75;45.50;32.20;50.80;;;;;;111605;1238;45493;-65
2023/07/20 11:29:19;;;;;;;;;54.33;40.33;32.20;50.90;;;;;;111667;1240;49071;-65
2023/07/20 11:31:47;;;;;;;;;57.75;42.00;32.20;50.80;;;;;;111613;1239;49193;-66
2023/07/20 11:34:15;;;;;;;;;57.00;44.00;32.30;51.30;;;;;;111668;1241;53455;-66
2023/07/20 11:36:46;;;;;;;;;60.00;44.00;32.20;50.90;;;;;;111668;1242;44234;-65
2023/07/20 11:39:19;;;;;;;;;57.00;43.00;32.20;50.60;;;;;;111646;1240;49113;-67
2023/07/20 11:41:50;;;;;;;;;55.50;43.75;32.30;50.90;;;;;;111510;1245;50622;-67
2023/07/20 11:44:18;;;;;;;;;50.00;38.50;32.20;50.40;;;;;;111665;1244;53714;-67
2023/07/20 11:46:45;;;;;;;;;50.00;40.00;32.20;50.50;;;;;;111696;1238;45548;-66
2023/07/20 11:49:12;;;;;;;;;49.75;40.25;32.10;50.80;;;;;;111549;1243;50579;-67
2023/07/20 11:51:40;;;;;;;;;47.50;37.00;32.10;50.70;;;;;;111258;1239;50366;-65
2023/07/20 11:54:08;;;;;;;;;44.25;36.00;32.10;50.80;;;;;;111264;1240;53645;-66
2023/07/20 11:56:35;;;;;;;;;42.75;35.00;32.10;50.70;;;;;;111550;1244;45646;-73
2023/07/20 11:59:04;;;;;;;;;47.00;36.75;32.10;51.20;;;;;;111422;1240;49740;-67
2023/07/20 12:01:32;;;;;;;;;42.25;32.00;32.10;50.70;;;;;;111346;1243;49328;-65
2023/07/20 12:04:01;;;;;;;;;40.50;33.00;32.20;50.90;;;;;;111344;1238;54807;-65
2023/07/20 12:06:29;;;;;;;;;45.50;33.25;32.10;51.10;;;;;;111413;1238;45663;-70
2023/07/20 12:08:57;;;;;;;;;36.00;32.00;32.20;51.70;;;;;;111858;1240;48999;-75
2023/07/20 12:11:38;;;;;;;;;39.33;29.33;32.20;50.80;;;;;;111850;1244;48892;-72
2023/07/20 12:14:08;;;;;;;;;33.33;26.33;32.20;50.60;;;;;;111547;1238;54101;-70
2023/07/20 12:16:37;;;;;;;;;33.00;26.50;32.20;50.30;;;;;;111731;1239;44857;-73
2023/07/20 12:19:09;;;;;;;;;31.00;27.50;32.30;50.20;;;;;;111506;1240;49476;-71
2023/07/20 12:21:39;;;;;;;;;26.50;23.50;32.40;50.20;;;;;;111534;1244;50197;-75
2023/07/20 12:24:08;;;;;;;;;29.50;25.25;32.40;50.30;;;;;;111652;1238;53729;-76
2023/07/20 12:26:35;;;;;;;;;29.25;25.75;32.50;50.20;;;;;;111753;1238;44881;-75
2023/07/20 12:29:03;;;;;;;;;25.00;22.00;32.50;49.80;;;;;;111573;1243;49741;-77
2023/07/20 12:31:30;;;;;;;;;22.00;20.75;32.50;49.90;;;;;;111613;1243;49179;-75